sensor_id;sensor_type;location;lat;lon;timestamp;pressure;altitude;pressure_sealevel;temperature;humidity
84770;BME280;75001;51.082;17.008;2024-02-21T00:03:25;102448.00;;;9.96;64.26
84770;BME280;75001;51.082;17.008;2024-02-21T00:13:35;102450.30;;;9.89;64.55
84770;BME280;75001;51.082;17.008;2024-02-21T00:23:45;102438.80;;;9.85;64.25
84770;BME280;75001;51.082;17.008;2024-02-21T00:33:55;102429.88;;;9.83;64.35
84770;BME280;75001;51.082;17.008;2024-02-21T00:44:05;102419.02;;;9.71;63.64
84770;BME280;75001;51.082;17.008;2024-02-21T00:54:15;102401.76;;;9.59;64.59
84770;BME280;75001;51.082;17.008;2024-02-21T01:04:25;102410.56;;;9.75;64.52
84770;BME280;75001;51.082;17.008;2024-02-21T01:14:35;102398.99;;;9.73;64.36
84770;BME280;75001;51.082;17.008;2024-02-21T01:24:45;102390.61;;;9.63;64.48
84770;BME280;75001;51.082;17.008;2024-02-21T01:34:55;102384.98;;;9.66;65.10
84770;BME280;75001;51.082;17.008;2024-02-21T01:45:07;102372.96;;;9.71;65.34
84770;BME280;75001;51.082;17.008;2024-02-21T01:55:16;102352.63;;;9.38;65.83
84770;BME280;75001;51.082;17.008;2024-02-21T02:05:26;102340.31;;;9.59;66.02
84770;BME280;75001;51.082;17.008;2024-02-21T02:15:46;102323.21;;;9.72;65.87
84770;BME280;75001;51.082;17.008;2024-02-21T02:25:48;102325.83;;;9.73;65.17
84770;BME280;75001;51.082;17.008;2024-02-21T02:35:56;102313.88;;;9.63;65.72
84770;BME280;75001;51.082;17.008;2024-02-21T02:46:06;102305.88;;;9.61;65.49
84770;BME280;75001;51.082;17.008;2024-02-21T02:56:19;102299.15;;;9.54;65.47
84770;BME280;75001;51.082;17.008;2024-02-21T03:06:29;102288.13;;;9.05;65.94
84770;BME280;75001;51.082;17.008;2024-02-21T03:16:39;102289.87;;;9.19;66.37
84770;BME280;75001;51.082;17.008;2024-02-21T03:26:49;102281.55;;;9.22;66.11
84770;BME280;75001;51.082;17.008;2024-02-21T03:36:59;102283.21;;;9.37;65.93
84770;BME280;75001;51.082;17.008;2024-02-21T03:47:09;102269.55;;;9.51;65.62
84770;BME280;75001;51.082;17.008;2024-02-21T03:57:19;102261.88;;;9.71;65.12
84770;BME280;75001;51.082;17.008;2024-02-21T04:07:29;102259.95;;;9.73;64.51
84770;BME280;75001;51.082;17.008;2024-02-21T04:17:39;102251.81;;;9.73;64.15
84770;BME280;75001;51.082;17.008;2024-02-21T04:27:49;102229.03;;;9.75;63.79
84770;BME280;75001;51.082;17.008;2024-02-21T04:37:59;102224.06;;;9.69;63.74
84770;BME280;75001;51.082;17.008;2024-02-21T04:48:09;102223.63;;;9.62;63.61
84770;BME280;75001;51.082;17.008;2024-02-21T04:58:19;102214.42;;;9.65;63.48
84770;BME280;75001;51.082;17.008;2024-02-21T05:08:30;102204.42;;;9.78;63.14
84770;BME280;75001;51.082;17.008;2024-02-21T05:18:40;102199.99;;;9.77;63.02
84770;BME280;75001;51.082;17.008;2024-02-21T05:28:50;102196.61;;;9.86;62.56
84770;BME280;75001;51.082;17.008;2024-02-21T05:39:00;102194.37;;;9.80;62.09
84770;BME280;75001;51.082;17.008;2024-02-21T05:49:10;102183.52;;;9.68;62.30
84770;BME280;75001;51.082;17.008;2024-02-21T05:59:20;102179.18;;;9.78;62.12
84770;BME280;75001;51.082;17.008;2024-02-21T06:09:30;102178.20;;;9.79;61.89
84770;BME280;75001;51.082;17.008;2024-02-21T06:19:43;102179.58;;;9.97;61.80
84770;BME280;75001;51.082;17.008;2024-02-21T06:29:53;102173.23;;;9.60;62.10
84770;BME280;75001;51.082;17.008;2024-02-21T06:40:03;102178.20;;;9.79;61.80
84770;BME280;75001;51.082;17.008;2024-02-21T06:50:13;102175.15;;;9.83;61.74
84770;BME280;75001;51.082;17.008;2024-02-21T07:00:23;102174.67;;;10.02;61.31
84770;BME280;75001;51.082;17.008;2024-02-21T07:10:33;102172.69;;;10.17;61.29
84770;BME280;75001;51.082;17.008;2024-02-21T07:20:46;102169.60;;;10.34;61.29
84770;BME280;75001;51.082;17.008;2024-02-21T07:30:56;102162.32;;;9.98;61.98
84770;BME280;75001;51.082;17.008;2024-02-21T07:41:06;102154.71;;;10.03;62.76
84770;BME280;75001;51.082;17.008;2024-02-21T07:51:16;102148.60;;;10.25;63.03
84770;BME280;75001;51.082;17.008;2024-02-21T08:01:26;102138.97;;;10.45;62.53
84770;BME280;75001;51.082;17.008;2024-02-21T08:11:36;102132.84;;;10.54;62.24
84770;BME280;75001;51.082;17.008;2024-02-21T08:21:46;102128.67;;;10.73;61.78
84770;BME280;75001;51.082;17.008;2024-02-21T08:31:56;102119.21;;;10.78;61.66
84770;BME280;75001;51.082;17.008;2024-02-21T08:42:06;102116.67;;;10.99;61.57
84770;BME280;75001;51.082;17.008;2024-02-21T08:52:16;102109.66;;;11.19;61.31
84770;BME280;75001;51.082;17.008;2024-02-21T09:02:27;102104.83;;;11.34;60.57
84770;BME280;75001;51.082;17.008;2024-02-21T09:12:36;102099.42;;;11.23;60.11
84770;BME280;75001;51.082;17.008;2024-02-21T09:22:46;102082.27;;;11.22;60.33
84770;BME280;75001;51.082;17.008;2024-02-21T09:32:56;102099.29;;;11.35;59.92
84770;BME280;75001;51.082;17.008;2024-02-21T09:43:06;102095.72;;;11.35;59.87
84770;BME280;75001;51.082;17.008;2024-02-21T09:53:18;102076.19;;;11.41;60.13
84770;BME280;75001;51.082;17.008;2024-02-21T10:03:26;102086.30;;;11.50;59.72
84770;BME280;75001;51.082;17.008;2024-02-21T10:13:36;102085.95;;;11.32;59.88
84770;BME280;75001;51.082;17.008;2024-02-21T10:23:48;102084.59;;;11.38;59.99
84770;BME280;75001;51.082;17.008;2024-02-21T10:34:00;102086.57;;;11.36;59.99
84770;BME280;75001;51.082;17.008;2024-02-21T10:44:08;102079.05;;;11.39;60.35
84770;BME280;75001;51.082;17.008;2024-02-21T11:04:34;102035.65;;;11.83;60.17
84770;BME280;75001;51.082;17.008;2024-02-21T11:14:38;102026.10;;;11.77;59.65
84770;BME280;75001;51.082;17.008;2024-02-21T11:24:46;102022.53;;;11.88;59.67
84770;BME280;75001;51.082;17.008;2024-02-21T11:34:58;101991.20;;;12.05;59.76
84770;BME280;75001;51.082;17.008;2024-02-21T11:45:07;101978.20;;;12.29;59.55
84770;BME280;75001;51.082;17.008;2024-02-21T11:55:20;101983.04;;;12.26;59.26
84770;BME280;75001;51.082;17.008;2024-02-21T12:05:30;101979.90;;;11.88;59.80
84770;BME280;75001;51.082;17.008;2024-02-21T12:15:40;101957.30;;;12.30;59.43
84770;BME280;75001;51.082;17.008;2024-02-21T12:25:51;101926.85;;;12.67;59.15
84770;BME280;75001;51.082;17.008;2024-02-21T12:36:00;101922.15;;;12.69;57.83
84770;BME280;75001;51.082;17.008;2024-02-21T12:46:10;101914.48;;;12.53;57.29
84770;BME280;75001;51.082;17.008;2024-02-21T12:56:20;101890.66;;;12.45;56.32
84770;BME280;75001;51.082;17.008;2024-02-21T13:06:30;101874.88;;;12.39;56.35
84770;BME280;75001;51.082;17.008;2024-02-21T13:16:40;101875.69;;;12.30;56.42
84770;BME280;75001;51.082;17.008;2024-02-21T13:26:50;101853.01;;;12.50;56.58
84770;BME280;75001;51.082;17.008;2024-02-21T13:37:00;101832.52;;;12.46;56.01
84770;BME280;75001;51.082;17.008;2024-02-21T13:47:11;101829.53;;;12.49;56.03
84770;BME280;75001;51.082;17.008;2024-02-21T13:57:20;101821.38;;;12.59;56.15
84770;BME280;75001;51.082;17.008;2024-02-21T14:07:30;101802.23;;;12.80;56.23
84770;BME280;75001;51.082;17.008;2024-02-21T14:17:40;101794.99;;;13.09;56.11
84770;BME280;75001;51.082;17.008;2024-02-21T14:27:50;101797.56;;;13.11;55.82
84770;BME280;75001;51.082;17.008;2024-02-21T14:38:00;101771.81;;;13.25;55.67
84770;BME280;75001;51.082;17.008;2024-02-21T14:48:10;101779.50;;;13.20;55.25
84770;BME280;75001;51.082;17.008;2024-02-21T14:58:20;101774.06;;;13.10;55.09
84770;BME280;75001;51.082;17.008;2024-02-21T15:08:30;101749.95;;;12.96;55.24
84770;BME280;75001;51.082;17.008;2024-02-21T15:18:40;101736.92;;;12.99;55.16
84770;BME280;75001;51.082;17.008;2024-02-21T15:28:50;101744.09;;;12.91;55.21
84770;BME280;75001;51.082;17.008;2024-02-21T15:39:00;101722.74;;;13.05;55.46
84770;BME280;75001;51.082;17.008;2024-02-21T15:49:10;101719.01;;;13.06;55.36
84770;BME280;75001;51.082;17.008;2024-02-21T15:59:20;101735.92;;;12.91;55.39
84770;BME280;75001;51.082;17.008;2024-02-21T16:09:30;101717.87;;;12.90;55.74
84770;BME280;75001;51.082;17.008;2024-02-21T16:19:40;101709.99;;;12.77;55.90
84770;BME280;75001;51.082;17.008;2024-02-21T16:29:50;101708.83;;;12.60;56.27
84770;BME280;75001;51.082;17.008;2024-02-21T16:40:00;101711.95;;;12.55;56.25
84770;BME280;75001;51.082;17.008;2024-02-21T16:50:10;101701.80;;;12.57;56.49
84770;BME280;75001;51.082;17.008;2024-02-21T17:00:21;101698.02;;;12.29;56.24
84770;BME280;75001;51.082;17.008;2024-02-21T17:10:30;101675.02;;;12.03;56.70
84770;BME280;75001;51.082;17.008;2024-02-21T17:20:41;101681.45;;;11.92;57.08
84770;BME280;75001;51.082;17.008;2024-02-21T17:30:51;101652.55;;;11.91;57.20
84770;BME280;75001;51.082;17.008;2024-02-21T17:41:01;101638.85;;;11.72;57.42
84770;BME280;75001;51.082;17.008;2024-02-21T17:51:13;101623.76;;;11.58;57.62
84770;BME280;75001;51.082;17.008;2024-02-21T18:01:21;101597.20;;;11.31;57.88
84770;BME280;75001;51.082;17.008;2024-02-21T18:11:31;101582.93;;;11.08;58.36
84770;BME280;75001;51.082;17.008;2024-02-21T18:21:42;101573.99;;;10.96;58.62
84770;BME280;75001;51.082;17.008;2024-02-21T18:31:51;101555.87;;;10.76;59.12
84770;BME280;75001;51.082;17.008;2024-02-21T18:42:01;101554.02;;;10.55;59.36
84770;BME280;75001;51.082;17.008;2024-02-21T18:52:13;101548.40;;;10.47;59.42
84770;BME280;75001;51.082;17.008;2024-02-21T19:02:21;101546.59;;;10.36;59.44
84770;BME280;75001;51.082;17.008;2024-02-21T19:12:32;101529.40;;;10.15;59.80
84770;BME280;75001;51.082;17.008;2024-02-21T19:22:43;101512.96;;;9.96;60.19
84770;BME280;75001;51.082;17.008;2024-02-21T19:32:52;101497.13;;;9.80;60.46
84770;BME280;75001;51.082;17.008;2024-02-21T19:43:02;101497.66;;;9.74;60.63
84770;BME280;75001;51.082;17.008;2024-02-21T19:53:12;101481.66;;;9.71;60.63
84770;BME280;75001;51.082;17.008;2024-02-21T20:03:21;101462.93;;;9.68;60.94
84770;BME280;75001;51.082;17.008;2024-02-21T20:13:31;101463.94;;;9.66;60.88
84770;BME280;75001;51.082;17.008;2024-02-21T20:23:41;101423.69;;;9.62;61.12
84770;BME280;75001;51.082;17.008;2024-02-21T20:33:51;101409.15;;;9.63;61.00
84770;BME280;75001;51.082;17.008;2024-02-21T20:44:01;101386.63;;;9.62;61.00
84770;BME280;75001;51.082;17.008;2024-02-21T20:54:12;101367.46;;;9.54;61.21
84770;BME280;75001;51.082;17.008;2024-02-21T21:04:24;101338.46;;;9.45;61.57
84770;BME280;75001;51.082;17.008;2024-02-21T21:14:38;101321.63;;;8.98;62.07
84770;BME280;75001;51.082;17.008;2024-02-21T21:24:44;101315.59;;;9.06;62.13
84770;BME280;75001;51.082;17.008;2024-02-21T21:34:55;101294.37;;;9.22;62.24
84770;BME280;75001;51.082;17.008;2024-02-21T21:45:05;101284.50;;;9.32;62.11
84770;BME280;75001;51.082;17.008;2024-02-21T21:55:14;101271.62;;;9.46;61.88
84770;BME280;75001;51.082;17.008;2024-02-21T22:05:27;101246.85;;;9.50;61.98
84770;BME280;75001;51.082;17.008;2024-02-21T22:21:37;101223.40;;;9.19;62.25
84770;BME280;75001;51.082;17.008;2024-02-21T22:31:40;101205.79;;;9.45;61.91
84770;BME280;75001;51.082;17.008;2024-02-21T22:41:43;101200.19;;;9.68;61.74
84770;BME280;75001;51.082;17.008;2024-02-21T22:51:47;101184.63;;;9.90;61.32
84770;BME280;75001;51.082;17.008;2024-02-21T23:01:49;101176.68;;;9.99;61.05
84770;BME280;75001;51.082;17.008;2024-02-21T23:11:52;101164.73;;;10.11;60.61
84770;BME280;75001;51.082;17.008;2024-02-21T23:27:12;101143.72;;;10.34;59.73
84770;BME280;75001;51.082;17.008;2024-02-21T23:37:22;101118.03;;;10.48;59.14
84770;BME280;75001;51.082;17.008;2024-02-21T23:47:32;101125.46;;;10.55;58.40
84770;BME280;75001;51.082;17.008;2024-02-21T23:57:42;101107.02;;;10.69;58.68
